createdAt,value
2019-02-21T00:02:31.049Z,22.13
2019-02-21T00:05:32.988Z,23.47
2019-02-21T00:08:34.931Z,23.33
2019-02-21T00:11:37.346Z,19.07
2019-02-21T00:14:39.424Z,19.17
2019-02-21T00:17:41.426Z,18.53
2019-02-21T00:20:43.505Z,17.70
2019-02-21T00:23:45.502Z,16.37
2019-02-21T00:26:47.481Z,19.27
2019-02-21T00:29:49.413Z,17.13
2019-02-21T00:32:51.321Z,17.40
2019-02-21T00:35:53.400Z,15.87
2019-02-21T00:38:55.400Z,17.60
2019-02-21T00:41:57.371Z,18.90
2019-02-21T00:44:59.319Z,17.67
2019-02-21T00:48:01.436Z,19.20
2019-02-21T00:51:03.358Z,18.87
2019-02-21T00:54:05.308Z,20.70
2019-02-21T00:57:07.305Z,24.47
2019-02-21T01:00:11.831Z,22.43
2019-02-21T01:03:13.779Z,22.30
2019-02-21T01:06:15.775Z,21.87
2019-02-21T01:09:17.852Z,19.27
2019-02-21T01:12:19.924Z,18.63
2019-02-21T01:15:21.840Z,18.80
2019-02-21T01:18:23.820Z,17.10
2019-02-21T01:21:25.692Z,19.37
2019-02-21T01:24:27.663Z,18.97
2019-02-21T01:27:29.629Z,19.70
2019-02-21T01:30:31.536Z,21.13
2019-02-21T01:33:33.507Z,20.30
2019-02-21T01:36:35.527Z,17.30
2019-02-21T01:39:37.498Z,17.33
2019-02-21T01:42:39.450Z,17.20
2019-02-21T01:45:41.555Z,14.93
2019-02-21T01:48:43.452Z,15.63
2019-02-21T01:51:45.345Z,15.43
2019-02-21T01:54:47.215Z,17.03
2019-02-21T01:57:49.958Z,16.47
2019-02-21T02:00:51.941Z,16.27
2019-02-21T02:03:53.898Z,16.13
2019-02-21T02:06:55.801Z,17.40
2019-02-21T02:09:57.822Z,16.47
2019-02-21T02:12:59.707Z,15.97
2019-02-21T02:16:01.611Z,14.60
2019-02-21T02:19:03.515Z,15.70
2019-02-21T02:22:05.402Z,13.43
2019-02-21T02:25:07.347Z,14.73
2019-02-21T02:28:09.410Z,14.17
2019-02-21T02:31:22.100Z,15.60
2019-02-21T02:34:15.992Z,15.27
2019-02-21T02:37:18.002Z,14.70
2019-02-21T02:40:19.875Z,15.50
2019-02-21T02:43:22.315Z,17.17
2019-02-21T02:46:24.230Z,14.43
2019-02-21T02:49:26.181Z,16.33
2019-02-21T02:52:28.087Z,14.63
2019-02-21T02:55:30.021Z,16.40
2019-02-21T02:58:32.029Z,16.80
2019-02-21T03:01:35.190Z,15.97
2019-02-21T03:04:37.581Z,16.17
2019-02-21T03:07:39.505Z,16.33
2019-02-21T03:10:41.404Z,16.93
2019-02-21T03:13:43.303Z,15.67
2019-02-21T03:16:45.258Z,17.90
2019-02-21T03:19:47.218Z,16.13
2019-02-21T03:22:49.551Z,16.23
2019-02-21T03:25:52.270Z,18.27
2019-02-21T03:28:54.245Z,15.57
2019-02-21T03:31:56.510Z,16.27
2019-02-21T03:34:58.650Z,16.37
2019-02-21T03:38:00.807Z,16.40
2019-02-21T03:41:02.873Z,16.83
2019-02-21T03:44:04.874Z,16.33
2019-02-21T03:47:06.787Z,16.27
2019-02-21T03:50:09.957Z,17.17
2019-02-21T03:53:11.836Z,15.93
2019-02-21T03:56:13.785Z,16.03
2019-02-21T03:59:16.131Z,15.03
2019-02-21T04:02:18.037Z,14.90
2019-02-21T04:05:20.061Z,15.70
2019-02-21T04:08:22.165Z,15.57
2019-02-21T04:11:24.048Z,15.13
2019-02-21T04:14:26.126Z,15.33
2019-02-21T04:17:28.021Z,15.77
2019-02-21T04:20:29.942Z,16.50
2019-02-21T04:23:31.815Z,17.13
2019-02-21T04:26:33.716Z,15.30
2019-02-21T04:29:35.653Z,15.60
2019-02-21T04:32:37.596Z,15.60
2019-02-21T04:35:39.542Z,17.87
2019-02-21T04:38:41.582Z,15.60
2019-02-21T04:41:43.456Z,15.63
2019-02-21T04:44:45.354Z,15.57
2019-02-21T04:47:47.243Z,16.60
2019-02-21T04:50:49.208Z,17.73
2019-02-21T04:53:51.107Z,16.30
2019-02-21T04:56:53.096Z,17.80
2019-02-21T04:59:56.186Z,17.30
2019-02-21T05:02:58.126Z,17.73
2019-02-21T05:06:00.026Z,19.90
2019-02-21T05:09:01.965Z,18.17
2019-02-21T05:12:05.675Z,19.77
2019-02-21T05:15:08.998Z,20.80
2019-02-21T05:18:10.947Z,20.27
2019-02-21T05:21:12.823Z,24.77
2019-02-21T05:24:14.813Z,23.00
2019-02-21T05:27:18.547Z,21.33
2019-02-21T05:30:22.377Z,26.67
2019-02-21T05:33:41.517Z,29.87
2019-02-21T05:36:51.071Z,29.13
2019-02-21T05:40:03.129Z,25.10
2019-02-21T05:43:06.724Z,19.27
2019-02-21T05:46:13.472Z,18.20
2019-02-21T05:49:20.231Z,17.37
2019-02-21T05:52:26.816Z,20.43
2019-02-21T05:55:30.486Z,20.93
2019-02-21T05:58:37.018Z,20.93
2019-02-21T06:01:40.831Z,19.80
2019-02-21T06:04:47.464Z,22.63
2019-02-21T06:08:05.985Z,25.53
2019-02-21T06:11:18.030Z,23.30
2019-02-21T06:14:24.012Z,17.77
2019-02-21T06:17:30.718Z,19.33
2019-02-21T06:20:40.927Z,23.20
2019-02-21T06:23:49.226Z,24.17
2019-02-21T06:26:53.173Z,23.70
2019-02-21T06:30:00.348Z,24.10
2019-02-21T06:33:05.402Z,23.30
2019-02-21T06:36:06.595Z,22.23
2019-02-21T06:39:08.513Z,20.67
2019-02-21T06:42:10.564Z,18.40
2019-02-21T06:45:12.490Z,19.87
2019-02-21T06:48:14.433Z,19.17
2019-02-21T06:51:16.347Z,20.43
2019-02-21T06:54:18.529Z,21.40
2019-02-21T06:57:20.453Z,21.63
2019-02-21T07:00:22.461Z,19.83
2019-02-21T07:03:25.971Z,21.73
2019-02-21T07:06:31.989Z,19.67
2019-02-21T07:09:31.856Z,21.53
2019-02-21T07:12:33.831Z,22.20
2019-02-21T07:15:35.779Z,22.80
2019-02-21T07:18:37.757Z,23.77
2019-02-21T07:21:39.650Z,24.53
2019-02-21T07:24:42.738Z,24.97
2019-02-21T07:27:44.628Z,26.93
2019-02-21T07:30:47.175Z,21.20
2019-02-21T07:33:49.195Z,23.30
2019-02-21T07:36:51.123Z,21.80
2019-02-21T07:39:53.141Z,21.13
2019-02-21T07:42:55.299Z,23.90
2019-02-21T07:45:57.226Z,23.40
2019-02-21T07:49:00.299Z,24.67
2019-02-21T07:52:02.211Z,25.13
2019-02-21T07:55:06.815Z,22.30
2019-02-21T07:58:08.734Z,23.07
2019-02-21T08:01:10.694Z,22.40
2019-02-21T08:04:14.420Z,23.80
2019-02-21T08:07:16.359Z,21.13
2019-02-21T08:10:21.048Z,21.70
2019-02-21T08:13:22.198Z,21.13
2019-02-21T08:16:24.165Z,20.27
2019-02-21T08:19:26.051Z,19.03
2019-02-21T08:22:28.005Z,21.33
2019-02-21T08:25:29.993Z,20.37
2019-02-21T08:28:31.859Z,20.57
2019-02-21T08:31:34.883Z,20.57
2019-02-21T08:34:38.694Z,21.13
2019-02-21T08:37:40.650Z,21.97
2019-02-21T08:40:42.564Z,18.70
2019-02-21T08:43:44.609Z,20.30
2019-02-21T08:46:46.537Z,19.33
2019-02-21T08:49:48.503Z,20.60
2019-02-21T08:52:50.445Z,20.73
2019-02-21T08:55:52.419Z,20.97
2019-02-21T08:58:54.418Z,21.70
2019-02-21T09:01:56.484Z,21.17
2019-02-21T09:04:59.038Z,23.77
2019-02-21T09:08:01.022Z,21.37
2019-02-21T09:11:04.043Z,20.93
2019-02-21T09:14:06.275Z,22.50
2019-02-21T09:17:08.262Z,21.70
2019-02-21T09:20:10.765Z,22.30
2019-02-21T09:23:15.659Z,21.87
2019-02-21T09:26:16.707Z,21.93
2019-02-21T09:29:18.603Z,21.13
2019-02-21T09:32:20.499Z,21.10
2019-02-21T09:35:22.592Z,22.40
2019-02-21T09:38:24.491Z,22.20
2019-02-21T09:41:28.554Z,24.33
2019-02-21T09:44:30.394Z,23.13
2019-02-21T09:47:32.303Z,21.33
2019-02-21T09:50:34.288Z,21.67
2019-02-21T09:53:36.235Z,23.30
2019-02-21T09:56:38.196Z,24.00
2019-02-21T09:59:40.075Z,20.10
2019-02-21T10:02:42.218Z,22.73
2019-02-21T10:05:44.438Z,21.60
2019-02-21T10:08:46.401Z,22.33
2019-02-21T10:11:48.327Z,22.77
2019-02-21T10:14:50.282Z,22.13
2019-02-21T10:17:52.226Z,23.83
2019-02-21T10:20:54.192Z,22.33
2019-02-21T10:23:56.876Z,22.53
2019-02-21T10:26:59.292Z,22.37
2019-02-21T10:30:01.157Z,24.23
2019-02-21T10:33:03.113Z,24.53
2019-02-21T10:36:05.101Z,24.43
2019-02-21T10:39:07.031Z,26.17
2019-02-21T10:42:08.965Z,26.17
2019-02-21T10:45:14.396Z,24.67
2019-02-21T10:48:16.311Z,24.23
2019-02-21T10:51:18.289Z,23.17
2019-02-21T10:54:20.197Z,21.23
2019-02-21T10:57:22.297Z,23.57
2019-02-21T11:00:26.722Z,23.07
2019-02-21T11:03:28.734Z,22.73
2019-02-21T11:06:31.202Z,22.67
2019-02-21T11:09:33.167Z,22.87
2019-02-21T11:12:35.083Z,22.60
2019-02-21T11:15:37.106Z,22.93
2019-02-21T11:18:39.059Z,21.10
2019-02-21T11:21:40.994Z,21.23
2019-02-21T11:24:43.036Z,23.00
2019-02-21T11:27:45.006Z,22.27
2019-02-21T11:30:46.995Z,22.90
2019-02-21T11:33:48.840Z,22.20
2019-02-21T11:36:50.851Z,23.87
2019-02-21T11:39:52.859Z,27.13
2019-02-21T11:42:54.844Z,25.50
2019-02-21T11:45:57.514Z,23.90
2019-02-21T11:48:59.662Z,23.40
2019-02-21T11:52:09.813Z,23.63
2019-02-21T11:55:08.639Z,25.30
2019-02-21T11:58:11.820Z,26.67
2019-02-21T12:01:13.815Z,25.03
2019-02-21T12:04:15.761Z,26.90
2019-02-21T12:07:17.934Z,25.83
2019-02-21T12:10:20.034Z,23.83
2019-02-21T12:13:22.009Z,24.87
2019-02-21T12:16:23.951Z,25.07
2019-02-21T12:19:25.957Z,25.60
2019-02-21T12:22:27.897Z,25.43
2019-02-21T12:25:29.853Z,25.67
2019-02-21T12:28:35.233Z,27.37
2019-02-21T12:31:37.274Z,26.03
2019-02-21T12:34:39.343Z,25.23
2019-02-21T12:37:41.305Z,25.80
2019-02-21T12:40:43.231Z,22.07
2019-02-21T12:43:45.198Z,22.93
2019-02-21T12:46:47.353Z,23.87
2019-02-21T12:49:49.256Z,24.97
2019-02-21T12:52:51.229Z,23.73
2019-02-21T12:55:53.161Z,26.00
2019-02-21T12:58:55.154Z,24.33
2019-02-21T13:01:57.061Z,25.07
2019-02-21T13:04:59.038Z,24.90
2019-02-21T13:08:01.043Z,24.17
2019-02-21T13:11:03.068Z,26.33
2019-02-21T13:14:04.989Z,24.57
2019-02-21T13:17:07.571Z,21.03
2019-02-21T13:20:12.185Z,21.20
2019-02-21T13:23:14.358Z,21.50
2019-02-21T13:26:16.693Z,23.07
2019-02-21T13:29:18.700Z,24.30
2019-02-21T13:32:20.578Z,23.23
2019-02-21T13:35:22.484Z,23.73
2019-02-21T13:38:24.515Z,24.20
2019-02-21T13:41:26.442Z,24.10
2019-02-21T13:44:28.361Z,23.67
2019-02-21T13:47:30.543Z,25.83
2019-02-21T13:50:32.543Z,23.90
2019-02-21T13:53:34.459Z,25.00
2019-02-21T13:56:36.484Z,27.37
2019-02-21T13:59:38.342Z,26.87
2019-02-21T14:02:40.247Z,25.90
2019-02-21T14:05:42.179Z,26.27
2019-02-21T14:08:44.842Z,28.60
2019-02-21T14:11:47.905Z,27.50
2019-02-21T14:14:49.993Z,28.13
2019-02-21T14:17:51.899Z,27.90
2019-02-21T14:20:53.841Z,24.83
2019-02-21T14:23:55.773Z,25.13
2019-02-21T14:26:57.711Z,28.63
2019-02-21T14:29:59.719Z,29.37
2019-02-21T14:33:01.660Z,28.97
2019-02-21T14:36:15.208Z,20.63
2019-02-21T14:39:10.628Z,19.43
2019-02-21T14:42:13.033Z,17.23
2019-02-21T14:45:20.498Z,19.23
2019-02-21T14:48:22.568Z,18.07
2019-02-21T14:51:24.498Z,20.63
2019-02-21T14:54:26.453Z,19.40
2019-02-21T14:57:28.439Z,19.83
2019-02-21T15:00:30.407Z,22.00
2019-02-21T15:03:32.306Z,20.07
2019-02-21T15:06:34.550Z,21.20
2019-02-21T15:09:36.567Z,21.23
2019-02-21T15:12:38.672Z,27.50
2019-02-21T15:15:40.792Z,21.30
2019-02-21T15:18:42.795Z,23.17
2019-02-21T15:21:44.797Z,23.43
2019-02-21T15:24:49.351Z,25.10
2019-02-21T15:27:51.224Z,25.87
2019-02-21T15:30:54.264Z,27.10
2019-02-21T15:33:56.259Z,27.47
2019-02-21T15:36:58.380Z,27.97
2019-02-21T15:40:01.115Z,30.53
2019-02-21T15:43:05.301Z,34.57
2019-02-21T15:46:07.564Z,39.17
2019-02-21T15:49:09.729Z,32.93
2019-02-21T15:52:21.777Z,28.90
2019-02-21T15:55:17.553Z,24.57
2019-02-21T15:58:22.043Z,24.93
2019-02-21T16:01:24.085Z,23.23
2019-02-21T16:04:26.220Z,24.03
2019-02-21T16:07:28.699Z,25.60
2019-02-21T16:10:30.785Z,25.57
2019-02-21T16:13:32.970Z,24.07
2019-02-21T16:16:35.512Z,26.03
2019-02-21T16:19:37.510Z,27.77
2019-02-21T16:22:39.641Z,29.07
2019-02-21T16:25:41.528Z,30.53
2019-02-21T16:28:46.189Z,31.80
2019-02-21T16:31:50.477Z,31.20
2019-02-21T16:34:54.407Z,30.27
2019-02-21T16:37:56.397Z,32.13
2019-02-21T16:41:03.028Z,31.30
2019-02-21T16:44:07.092Z,33.87
2019-02-21T16:47:09.497Z,34.27
2019-02-21T16:50:13.855Z,32.13
2019-02-21T16:53:15.778Z,28.13
2019-02-21T16:56:20.077Z,26.30
2019-02-21T16:59:25.471Z,26.70
2019-02-21T17:02:27.469Z,22.20
2019-02-21T17:05:29.498Z,24.53
2019-02-21T17:08:31.938Z,24.57
2019-02-21T17:11:35.593Z,26.87
2019-02-21T17:14:37.551Z,25.37
2019-02-21T17:17:39.594Z,20.60
2019-02-21T17:20:41.576Z,20.97
2019-02-21T17:23:43.612Z,23.03
2019-02-21T17:26:47.833Z,26.13
2019-02-21T17:29:50.931Z,24.03
2019-02-21T17:32:52.964Z,25.80
2019-02-21T17:35:56.757Z,29.53
2019-02-21T17:38:59.110Z,27.37
2019-02-21T17:42:02.507Z,19.73
2019-02-21T17:45:05.969Z,17.27
2019-02-21T17:48:07.957Z,16.23
2019-02-21T17:51:14.258Z,16.67
2019-02-21T17:54:17.861Z,20.43
2019-02-21T17:57:21.066Z,23.90
2019-02-21T18:00:28.405Z,26.90
2019-02-21T18:03:33.916Z,28.27
2019-02-21T18:06:36.193Z,29.20
2019-02-21T18:09:38.521Z,32.30
2019-02-21T18:12:43.919Z,30.00
2019-02-21T18:15:46.888Z,27.37
2019-02-21T18:18:48.807Z,29.63
2019-02-21T18:21:57.901Z,29.40
2019-02-21T18:25:01.333Z,28.93
2019-02-21T18:28:03.753Z,30.57
2019-02-21T18:31:05.658Z,28.80
2019-02-21T18:34:07.563Z,32.63
2019-02-21T18:37:10.853Z,33.23
2019-02-21T18:40:17.785Z,34.27
2019-02-21T18:43:21.719Z,36.20
2019-02-21T18:46:23.731Z,39.20
2019-02-21T18:49:25.716Z,34.70
2019-02-21T18:52:28.518Z,28.43
2019-02-21T18:55:30.984Z,23.30
2019-02-21T18:58:33.325Z,22.97
2019-02-21T19:01:35.404Z,24.23
2019-02-21T19:04:37.506Z,21.67
2019-02-21T19:07:39.495Z,23.47
2019-02-21T19:10:41.504Z,23.13
2019-02-21T19:13:46.932Z,21.43
2019-02-21T19:16:51.080Z,23.00
2019-02-21T19:19:55.542Z,23.37
2019-02-21T19:22:58.511Z,23.23
2019-02-21T19:26:00.474Z,22.80
2019-02-21T19:29:03.642Z,22.27
2019-02-21T19:32:05.586Z,23.97
2019-02-21T19:35:09.048Z,26.57
2019-02-21T19:38:12.808Z,23.03
2019-02-21T19:41:15.410Z,24.53
2019-02-21T19:44:18.447Z,25.17
2019-02-21T19:47:23.753Z,23.53
2019-02-21T19:50:26.078Z,24.67
2019-02-21T19:53:28.384Z,23.50
2019-02-21T19:56:31.732Z,24.07
2019-02-21T19:59:35.788Z,46.57
2019-02-21T20:02:40.137Z,25.70
2019-02-21T20:05:42.153Z,25.73
2019-02-21T20:08:45.499Z,25.83
2019-02-21T20:11:50.660Z,27.13
2019-02-21T20:14:54.320Z,24.13
2019-02-21T20:17:59.305Z,25.77
2019-02-21T20:21:01.276Z,25.63
2019-02-21T20:24:09.091Z,25.20
2019-02-21T20:27:13.628Z,25.20
2019-02-21T20:30:17.082Z,25.97
2019-02-21T20:33:20.335Z,27.20
2019-02-21T20:36:22.346Z,28.77
2019-02-21T20:39:24.706Z,28.77
2019-02-21T20:42:26.651Z,28.73
2019-02-21T20:45:28.667Z,27.80
2019-02-21T20:48:36.560Z,28.87
2019-02-21T20:51:38.475Z,26.90
2019-02-21T20:54:43.717Z,26.50
2019-02-21T20:57:45.746Z,28.43
2019-02-21T21:00:47.716Z,50.37
2019-02-21T21:03:50.761Z,29.80
2019-02-21T21:06:53.848Z,29.43
2019-02-21T21:09:56.224Z,28.33
2019-02-21T21:13:02.430Z,28.63
2019-02-21T21:16:06.421Z,28.80
2019-02-21T21:19:09.833Z,28.23
2019-02-21T21:22:11.781Z,28.60
2019-02-21T21:25:17.436Z,29.93
2019-02-21T21:28:19.402Z,31.70
2019-02-21T21:31:21.310Z,32.10
2019-02-21T21:34:25.111Z,31.63
2019-02-21T21:37:27.022Z,33.23
2019-02-21T21:40:28.951Z,31.73
2019-02-21T21:43:30.844Z,32.30
2019-02-21T21:46:32.858Z,33.23
2019-02-21T21:49:34.922Z,65.00
2019-02-21T21:52:36.843Z,33.13
2019-02-21T21:55:38.790Z,33.43
2019-02-21T21:58:40.732Z,35.20
2019-02-21T22:01:42.703Z,36.80
2019-02-21T22:04:44.619Z,34.40
2019-02-21T22:07:49.081Z,34.60
2019-02-21T22:10:50.419Z,33.07
2019-02-21T22:13:52.670Z,34.50
2019-02-21T22:16:54.775Z,32.70
2019-02-21T22:19:56.795Z,32.93
2019-02-21T22:22:58.784Z,32.63
2019-02-21T22:26:00.889Z,33.03
2019-02-21T22:29:02.953Z,31.93
2019-02-21T22:32:04.912Z,31.67
2019-02-21T22:35:07.272Z,31.80
2019-02-21T22:38:09.306Z,31.63
2019-02-21T22:41:11.315Z,32.33
2019-02-21T22:44:13.353Z,33.93
2019-02-21T22:47:15.455Z,32.17
2019-02-21T22:50:18.486Z,31.70
2019-02-21T22:53:20.433Z,32.23
2019-02-21T22:56:22.408Z,30.70
2019-02-21T22:59:24.443Z,31.40
2019-02-21T23:02:27.742Z,28.97
2019-02-21T23:05:50.239Z,30.07
2019-02-21T23:08:53.554Z,28.73
2019-02-21T23:11:55.500Z,29.27
2019-02-21T23:14:57.585Z,29.03
2019-02-21T23:18:00.181Z,29.70
2019-02-21T23:21:02.327Z,30.93
2019-02-21T23:24:04.586Z,30.30
2019-02-21T23:27:06.595Z,29.67
2019-02-21T23:30:09.359Z,29.90
2019-02-21T23:33:11.412Z,27.63
2019-02-21T23:36:13.450Z,30.13
2019-02-21T23:39:15.449Z,29.20
2019-02-21T23:42:18.217Z,28.60
2019-02-21T23:45:20.534Z,32.13
2019-02-21T23:48:22.546Z,30.13
2019-02-21T23:51:24.584Z,27.80
2019-02-21T23:54:26.587Z,27.60
2019-02-21T23:57:28.638Z,28.53
